Time;durP1;ratioP1;P1;durP2;ratioP2;P2;SDS_P1;SDS_P2;PMS_P1;PMS_P2;Temp;Humidity;BMP_temperature;BMP_pressure;BME280_temperature;BME280_humidity;BME280_pressure;Samples;Min_cycle;Max_cycle;Signal;HPM_P1;HPM_P2
2023/09/19 00:00:35;;;;;;;15.73;14.33;;;12.60;99.90;;;;;;5048945;28;20806;-73
2023/09/19 00:03:01;;;;;;;26.00;24.17;;;12.70;99.90;;;;;;5047921;28;20799;-74
2023/09/19 00:05:28;;;;;;;11.30;10.00;;;12.80;99.90;;;;;;5047126;28;20374;-74
2023/09/19 00:07:58;;;;;;;18.43;16.10;;;12.80;99.90;;;;;;5024244;28;20047;-74
2023/09/19 00:10:30;;;;;;;37.47;35.03;;;12.80;99.90;;;;;;5023529;28;20367;-74
2023/09/19 00:13:05;;;;;;;21.47;19.73;;;12.80;99.90;;;;;;5041359;28;20651;-74
2023/09/19 00:15:35;;;;;;;20.15;18.55;;;12.80;99.90;;;;;;5039525;28;20295;-74
2023/09/19 00:18:01;;;;;;;48.10;44.93;;;12.80;99.90;;;;;;5025639;28;20044;-74
2023/09/19 00:20:28;;;;;;;12.63;6.87;;;12.80;99.90;;;;;;5042686;28;20362;-74
2023/09/19 00:22:53;;;;;;;11.80;6.90;;;12.70;99.90;;;;;;5039187;28;20362;-74
2023/09/19 00:25:22;;;;;;;43.80;41.23;;;12.70;98.70;;;;;;5043379;28;20375;-74
2023/09/19 00:27:51;;;;;;;14.07;10.03;;;12.60;98.90;;;;;;5022246;28;20393;-74
2023/09/19 00:30:19;;;;;;;7.40;6.67;;;12.60;98.40;;;;;;5045119;28;20622;-74
2023/09/19 00:32:49;;;;;;;22.10;20.13;;;12.50;98.10;;;;;;5047988;28;20375;-74
2023/09/19 00:35:15;;;;;;;39.33;36.40;;;12.40;96.70;;;;;;5043350;28;20356;-74
2023/09/19 00:37:41;;;;;;;34.10;31.47;;;12.40;97.60;;;;;;5027348;28;20308;-73
2023/09/19 00:40:15;;;;;;;11.67;8.33;;;12.30;97.00;;;;;;5026851;28;20033;-73
2023/09/19 00:42:50;;;;;;;13.93;6.47;;;12.30;95.90;;;;;;5037362;28;20284;-73
2023/09/19 00:45:17;;;;;;;15.82;11.43;;;12.20;97.80;;;;;;5046759;28;20936;-73
2023/09/19 00:47:50;;;;;;;10.67;7.03;;;12.20;98.10;;;;;;5038065;28;20425;-73
2023/09/19 00:50:22;;;;;;;18.40;15.23;;;12.10;98.80;;;;;;5040661;28;20364;-73
2023/09/19 00:52:50;;;;;;;30.20;28.13;;;12.10;98.50;;;;;;5062438;28;20283;-73
2023/09/19 00:55:16;;;;;;;11.40;8.77;;;12.10;98.60;;;;;;5050218;28;20288;-73
2023/09/19 00:57:43;;;;;;;10.27;7.10;;;12.00;98.70;;;;;;5051650;28;20405;-73
2023/09/19 01:00:14;;;;;;;11.33;10.30;;;12.00;98.10;;;;;;5043651;28;20284;-73
2023/09/19 01:02:44;;;;;;;10.57;9.53;;;12.00;98.00;;;;;;5046689;28;20303;-73
2023/09/19 01:05:12;;;;;;;7.40;4.43;;;12.00;99.20;;;;;;5038424;28;20295;-73
2023/09/19 01:07:41;;;;;;;9.83;4.50;;;11.90;99.90;;;;;;5025433;28;20323;-73
2023/09/19 01:10:10;;;;;;;10.93;9.87;;;11.90;99.90;;;;;;5041495;28;20734;-73
2023/09/19 01:12:47;;;;;;;38.20;35.57;;;11.90;99.90;;;;;;5040254;28;20303;-73
2023/09/19 01:15:50;;;;;;;6.30;4.93;;;11.80;99.90;;;;;;5049089;28;20792;-73
2023/09/19 01:18:40;;;;;;;14.13;12.73;;;11.90;99.40;;;;;;5032213;28;20315;-73
2023/09/19 01:21:30;;;;;;;6.93;4.77;;;11.90;99.00;;;;;;5051998;28;20829;-73
2023/09/19 01:24:22;;;;;;;14.10;6.07;;;12.00;99.70;;;;;;5039146;28;20375;-73
2023/09/19 01:27:26;;;;;;;11.30;7.67;;;12.00;99.90;;;;;;5019623;28;20291;-73
2023/09/19 01:29:53;;;;;;;16.13;14.83;;;12.10;99.90;;;;;;5032842;28;20315;-73
2023/09/19 01:32:21;;;;;;;12.20;8.53;;;12.10;98.30;;;;;;5045883;28;20357;-73
2023/09/19 01:35:03;;;;;;;12.00;10.90;;;12.10;98.00;;;;;;5046710;28;20695;-73
2023/09/19 01:37:31;;;;;;;18.03;16.40;;;12.20;98.70;;;;;;5016547;28;20385;-73
2023/09/19 01:40:20;;;;;;;34.53;32.10;;;12.20;98.20;;;;;;5035990;28;20772;-73
2023/09/19 01:42:57;;;;;;;16.07;11.37;;;12.20;98.10;;;;;;5046382;28;20271;-73
2023/09/19 01:45:41;;;;;;;104.20;97.60;;;12.30;98.30;;;;;;5034839;28;20292;-73
2023/09/19 01:51:46;;;;;;;14.43;12.37;;;12.30;97.70;;;;;;5401390;23;20372;-74
2023/09/19 01:54:16;;;;;;;49.83;46.70;;;12.30;97.40;;;;;;4987856;28;20827;-74
2023/09/19 01:57:09;;;;;;;23.70;21.97;;;12.40;97.00;;;;;;4975874;28;20375;-74
2023/09/19 01:59:52;;;;;;;10.83;8.70;;;12.40;95.90;;;;;;4972407;28;20781;-74
2023/09/19 02:02:22;;;;;;;9.13;8.33;;;12.40;97.30;;;;;;4986124;28;20292;-74
2023/09/19 02:04:49;;;;;;;14.63;9.50;;;12.40;98.10;;;;;;4987681;28;20276;-74
2023/09/19 02:07:15;;;;;;;13.40;11.97;;;12.40;97.10;;;;;;4988725;28;20273;-74
2023/09/19 02:09:42;;;;;;;10.83;9.80;;;12.40;98.20;;;;;;4987385;28;20304;-74
2023/09/19 02:12:09;;;;;;;27.17;25.17;;;12.30;98.90;;;;;;4989022;28;20332;-74
2023/09/19 02:14:35;;;;;;;27.47;25.23;;;12.30;96.50;;;;;;4989492;28;20347;-74
2023/09/19 02:17:05;;;;;;;30.53;28.27;;;12.40;95.40;;;;;;4978283;28;20302;-74
2023/09/19 02:19:32;;;;;;;38.93;36.40;;;12.40;96.00;;;;;;4990171;28;20347;-74
2023/09/19 02:21:58;;;;;;;13.23;10.63;;;12.40;95.30;;;;;;4991499;28;20284;-74
2023/09/19 02:24:24;;;;;;;20.50;18.97;;;12.40;95.60;;;;;;4970459;28;20289;-74
2023/09/19 02:26:49;;;;;;;28.57;26.70;;;12.50;95.00;;;;;;4987210;28;20076;-74
2023/09/19 02:29:15;;;;;;;15.23;13.03;;;12.60;94.60;;;;;;4983264;28;20785;-74
2023/09/19 02:31:41;;;;;;;49.10;45.93;;;12.70;94.30;;;;;;4990046;28;20042;-74
2023/09/19 02:34:08;;;;;;;17.50;16.40;;;12.80;93.50;;;;;;4989903;28;20057;-74
2023/09/19 02:36:34;;;;;;;16.00;14.60;;;12.90;93.50;;;;;;4986693;28;20057;-74
2023/09/19 02:39:00;;;;;;;33.10;30.87;;;12.90;91.80;;;;;;4987626;28;20301;-74
2023/09/19 02:41:25;;;;;;;39.10;36.70;;;12.90;89.80;;;;;;4988096;28;20125;-74
2023/09/19 02:43:52;;;;;;;40.60;38.17;;;12.90;90.50;;;;;;4969950;28;20126;-74
2023/09/19 02:46:17;;;;;;;32.63;30.23;;;12.90;90.10;;;;;;4984175;28;20112;-74
2023/09/19 02:48:43;;;;;;;15.03;13.43;;;12.80;91.50;;;;;;4974917;28;20847;-74
2023/09/19 02:51:09;;;;;;;62.37;58.63;;;12.80;92.40;;;;;;4987215;28;20086;-74
2023/09/19 02:53:35;;;;;;;41.67;38.93;;;12.80;91.80;;;;;;4988057;28;20089;-74
2023/09/19 02:56:02;;;;;;;43.00;40.37;;;12.80;92.80;;;;;;4974445;28;20039;-74
2023/09/19 02:58:30;;;;;;;46.17;42.97;;;12.80;92.90;;;;;;4973058;28;20312;-74
2023/09/19 03:00:56;;;;;;;45.63;42.47;;;12.80;92.80;;;;;;4970392;28;20379;-74
2023/09/19 03:03:22;;;;;;;16.20;14.70;;;12.80;93.40;;;;;;4988850;28;20348;-75
2023/09/19 03:05:48;;;;;;;10.00;9.00;;;12.80;91.60;;;;;;4985639;28;20286;-74
2023/09/19 03:08:17;;;;;;;43.57;40.97;;;12.80;91.80;;;;;;4988157;28;20304;-75
2023/09/19 03:10:45;;;;;;;13.17;11.93;;;12.80;91.00;;;;;;4988599;28;20573;-74
2023/09/19 03:13:12;;;;;;;8.03;5.80;;;12.80;88.00;;;;;;4972504;28;20335;-74
2023/09/19 03:15:43;;;;;;;13.47;12.30;;;12.80;89.90;;;;;;4985698;28;20828;-74
2023/09/19 03:18:09;;;;;;;16.47;14.87;;;12.80;90.50;;;;;;4988762;28;20313;-74
2023/09/19 03:20:35;;;;;;;34.13;31.90;;;12.70;89.40;;;;;;5005564;28;20347;-74
2023/09/19 03:23:02;;;;;;;9.57;8.67;;;12.70;89.60;;;;;;4992249;28;20437;-74
2023/09/19 03:25:28;;;;;;;36.87;34.57;;;12.70;88.50;;;;;;4989166;28;20282;-74
2023/09/19 03:27:57;;;;;;;19.73;18.33;;;12.70;88.80;;;;;;4967602;28;20285;-74
2023/09/19 03:30:23;;;;;;;23.33;21.23;;;12.70;89.10;;;;;;4992756;28;20296;-74
2023/09/19 03:32:49;;;;;;;15.37;10.00;;;12.70;89.80;;;;;;4984022;28;20388;-74
2023/09/19 03:35:16;;;;;;;28.27;26.33;;;12.70;91.30;;;;;;4989014;28;20082;-74
2023/09/19 03:37:43;;;;;;;22.93;21.07;;;12.70;90.10;;;;;;4989220;28;20324;-74
2023/09/19 03:40:10;;;;;;;22.30;20.43;;;12.90;90.70;;;;;;4985737;28;20356;-74
2023/09/19 03:42:39;;;;;;;67.47;63.57;;;12.90;91.50;;;;;;4988418;28;20507;-74
2023/09/19 03:45:05;;;;;;;28.73;26.53;;;13.00;91.50;;;;;;4983124;28;20352;-75
2023/09/19 03:47:31;;;;;;;15.03;13.67;;;13.00;91.60;;;;;;4972348;28;20296;-74
2023/09/19 03:49:56;;;;;;;15.93;13.67;;;13.00;92.10;;;;;;4978097;28;20278;-74
2023/09/19 03:52:22;;;;;;;38.10;35.43;;;13.00;92.90;;;;;;4965448;28;20058;-74
2023/09/19 03:54:48;;;;;;;11.63;9.13;;;13.00;93.20;;;;;;4969323;28;20070;-74
2023/09/19 03:57:17;;;;;;;28.17;25.80;;;13.00;92.30;;;;;;4972421;28;20105;-74
2023/09/19 03:59:42;;;;;;;8.70;7.90;;;13.00;92.10;;;;;;4989155;28;20708;-74
2023/09/19 04:02:21;;;;;;;18.03;16.57;;;13.00;91.90;;;;;;4987852;28;20281;-74
2023/09/19 04:04:47;;;;;;;9.83;6.30;;;13.00;92.70;;;;;;4986373;28;20556;-74
2023/09/19 04:07:13;;;;;;;11.93;10.07;;;13.00;93.20;;;;;;4989802;28;20297;-74
2023/09/19 04:09:39;;;;;;;12.87;11.80;;;13.00;93.60;;;;;;4971131;28;20291;-74
2023/09/19 04:12:05;;;;;;;14.73;10.73;;;13.00;93.50;;;;;;4972922;28;20053;-74
2023/09/19 04:14:31;;;;;;;11.13;7.40;;;13.00;94.20;;;;;;4985076;28;20504;-74
2023/09/19 04:16:56;;;;;;;45.57;42.63;;;13.00;94.40;;;;;;4963490;28;20298;-74
2023/09/19 04:19:22;;;;;;;15.57;14.07;;;13.00;94.60;;;;;;4986156;28;20104;-74
2023/09/19 04:21:48;;;;;;;19.27;7.87;;;13.00;94.10;;;;;;4986091;28;20065;-74
2023/09/19 04:24:13;;;;;;;8.60;7.83;;;13.10;94.10;;;;;;4986791;28;20042;-74
2023/09/19 04:26:39;;;;;;;16.73;14.80;;;13.10;94.40;;;;;;4972148;28;20050;-74
2023/09/19 04:29:06;;;;;;;8.10;4.40;;;13.10;93.80;;;;;;4991156;28;20046;-74
2023/09/19 04:31:31;;;;;;;131.33;122.37;;;13.10;93.40;;;;;;4983990;28;20038;-74
2023/09/19 04:33:59;;;;;;;22.53;20.80;;;13.20;93.20;;;;;;4987397;28;20641;-74
2023/09/19 04:36:25;;;;;;;10.70;7.37;;;13.20;93.30;;;;;;4984812;28;20065;-74
2023/09/19 04:38:51;;;;;;;11.77;10.57;;;13.20;92.00;;;;;;4974889;28;20789;-74
2023/09/19 04:41:17;;;;;;;10.13;8.63;;;13.30;91.70;;;;;;4971310;28;20030;-74
2023/09/19 04:43:42;;;;;;;8.83;7.27;;;13.30;92.40;;;;;;4990005;28;21122;-74
2023/09/19 04:46:08;;;;;;;30.67;28.50;;;13.30;92.20;;;;;;4985389;28;20373;-74
2023/09/19 04:48:34;;;;;;;28.07;25.73;;;13.30;91.40;;;;;;4989860;28;20506;-74
2023/09/19 04:51:00;;;;;;;16.37;15.00;;;13.30;89.80;;;;;;4982444;28;20054;-74
2023/09/19 04:53:27;;;;;;;78.03;73.67;;;13.40;89.20;;;;;;4990639;28;20293;-74
2023/09/19 04:55:55;;;;;;;16.73;14.97;;;13.40;87.20;;;;;;4971859;28;20281;-74
2023/09/19 04:58:22;;;;;;;15.07;11.90;;;13.50;87.40;;;;;;4990984;28;20313;-74
2023/09/19 05:00:48;;;;;;;32.90;30.47;;;13.50;87.90;;;;;;4973677;28;20300;-74
2023/09/19 05:03:13;;;;;;;27.63;25.90;;;13.50;86.40;;;;;;4975193;28;20285;-74
2023/09/19 05:05:42;;;;;;;67.87;64.03;;;13.50;86.90;;;;;;4970810;28;20038;-74
2023/09/19 05:08:09;;;;;;;37.00;34.50;;;13.50;85.40;;;;;;4975473;28;20042;-74
2023/09/19 05:10:37;;;;;;;86.47;81.50;;;13.60;85.80;;;;;;4987412;28;20401;-74
2023/09/19 05:13:04;;;;;;;22.57;19.87;;;13.60;83.80;;;;;;4973520;28;20281;-74
2023/09/19 05:15:31;;;;;;;27.33;25.43;;;13.60;85.40;;;;;;4983586;28;20293;-74
2023/09/19 05:17:56;;;;;;;16.27;15.07;;;13.60;86.30;;;;;;4988622;28;20395;-74
2023/09/19 05:20:32;;;;;;;82.77;77.77;;;13.60;85.70;;;;;;4969563;28;20365;-74
2023/09/19 05:23:13;;;;;;;48.47;45.23;;;13.60;85.20;;;;;;4990981;28;20183;-75
2023/09/19 05:25:39;;;;;;;21.13;19.57;;;13.70;85.20;;;;;;4989082;28;20286;-75
2023/09/19 05:28:11;;;;;;;14.07;12.80;;;13.70;86.00;;;;;;4986436;28;21051;-74
2023/09/19 05:30:40;;;;;;;38.50;35.80;;;13.70;87.00;;;;;;4990855;28;20282;-74
2023/09/19 05:33:07;;;;;;;42.43;39.27;;;13.70;86.80;;;;;;4971850;28;20297;-75
2023/09/19 05:35:33;;;;;;;44.37;41.23;;;13.70;87.00;;;;;;4987738;28;20351;-75
2023/09/19 05:37:59;;;;;;;22.53;20.77;;;13.70;86.80;;;;;;4990936;28;20676;-74
2023/09/19 05:40:27;;;;;;;61.20;56.57;;;13.70;87.30;;;;;;4987129;28;20281;-74
2023/09/19 05:42:52;;;;;;;19.93;18.63;;;13.70;85.00;;;;;;4989592;28;20285;-74
2023/09/19 05:45:22;;;;;;;14.23;13.03;;;13.70;85.90;;;;;;4989516;28;20637;-74
2023/09/19 05:47:49;;;;;;;27.00;24.93;;;13.70;85.80;;;;;;4981095;28;20807;-74
2023/09/19 05:50:16;;;;;;;24.80;23.00;;;13.70;85.00;;;;;;4990201;28;20285;-74
2023/09/19 05:52:44;;;;;;;18.70;17.00;;;13.70;85.90;;;;;;4993310;28;20445;-74
2023/09/19 05:55:10;;;;;;;79.37;74.37;;;13.80;86.30;;;;;;4993410;28;20636;-76
2023/09/19 05:57:39;;;;;;;22.07;20.47;;;13.80;86.30;;;;;;5001806;28;20313;-76
2023/09/19 06:00:10;;;;;;;95.20;89.03;;;13.80;86.30;;;;;;4987501;28;20668;-76
2023/09/19 06:02:37;;;;;;;15.20;14.00;;;13.80;85.80;;;;;;4991791;28;20844;-75
2023/09/19 06:05:06;;;;;;;138.47;124.83;;;13.80;86.60;;;;;;4990100;28;20368;-76
2023/09/19 06:07:36;;;;;;;22.77;20.93;;;13.80;86.30;;;;;;4994341;28;20294;-76
2023/09/19 06:10:05;;;;;;;172.43;158.77;;;13.80;87.10;;;;;;4991476;28;20289;-75
2023/09/19 06:12:33;;;;;;;28.60;26.57;;;13.90;86.10;;;;;;4988510;28;20308;-76
2023/09/19 06:14:59;;;;;;;21.07;19.27;;;13.90;86.40;;;;;;4990504;28;20277;-76
2023/09/19 06:17:26;;;;;;;22.00;20.47;;;13.90;86.50;;;;;;4973463;28;20301;-73
2023/09/19 06:19:52;;;;;;;23.73;21.90;;;13.90;86.50;;;;;;4973801;28;20042;-73
2023/09/19 06:22:18;;;;;;;81.47;75.80;;;13.90;86.90;;;;;;4984980;28;20285;-74
2023/09/19 06:24:45;;;;;;;85.77;80.03;;;13.90;86.30;;;;;;4982177;28;20125;-73
2023/09/19 06:27:11;;;;;;;18.87;17.30;;;14.00;86.20;;;;;;4984096;28;20289;-73
2023/09/19 06:29:37;;;;;;;30.30;28.27;;;14.00;85.50;;;;;;4990183;28;20296;-73
2023/09/19 06:32:08;;;;;;;20.23;18.83;;;14.00;86.50;;;;;;4989530;28;20726;-73
2023/09/19 06:34:34;;;;;;;24.00;22.27;;;14.10;85.90;;;;;;4988145;28;20351;-73
2023/09/19 06:37:00;;;;;;;33.17;30.83;;;14.10;85.30;;;;;;4972986;28;20828;-73
2023/09/19 06:39:25;;;;;;;21.07;19.67;;;14.20;84.80;;;;;;4986383;28;20057;-73
2023/09/19 06:41:53;;;;;;;40.33;37.60;;;14.30;84.80;;;;;;4981921;28;20469;-73
2023/09/19 06:44:21;;;;;;;61.30;56.90;;;14.40;84.80;;;;;;4981552;28;20030;-75
2023/09/19 06:46:51;;;;;;;21.83;19.63;;;14.50;83.90;;;;;;4971787;28;20300;-75
2023/09/19 06:49:19;;;;;;;29.23;27.20;;;14.60;84.10;;;;;;4984083;28;20356;-74
2023/09/19 06:51:45;;;;;;;41.83;39.07;;;14.70;84.20;;;;;;4965717;28;20309;-74
2023/09/19 06:54:11;;;;;;;20.50;19.27;;;14.80;84.10;;;;;;4988361;28;20296;-74
2023/09/19 06:56:36;;;;;;;24.03;22.27;;;15.00;83.90;;;;;;4970778;28;20050;-74
2023/09/19 06:59:02;;;;;;;99.57;93.57;;;15.10;83.10;;;;;;4988514;28;20693;-74
2023/09/19 07:01:28;;;;;;;45.20;42.30;;;15.20;81.10;;;;;;4986659;28;20097;-75
2023/09/19 07:03:54;;;;;;;105.83;98.50;;;15.30;80.50;;;;;;4987897;28;20819;-75
2023/09/19 07:06:20;;;;;;;73.27;68.63;;;15.30;80.80;;;;;;4966003;28;20344;-75
2023/09/19 07:08:46;;;;;;;144.60;134.57;;;15.30;80.80;;;;;;4987810;28;20054;-75
2023/09/19 07:11:12;;;;;;;33.07;30.63;;;15.30;79.70;;;;;;4969641;28;20285;-75
2023/09/19 07:13:39;;;;;;;33.30;31.23;;;15.40;80.10;;;;;;4986139;28;20046;-74
2023/09/19 07:16:05;;;;;;;30.20;27.97;;;15.30;79.90;;;;;;4988794;28;20137;-75
2023/09/19 07:18:31;;;;;;;125.10;116.57;;;15.30;80.00;;;;;;4987402;28;20396;-75
2023/09/19 07:21:04;;;;;;;201.87;184.00;;;15.30;78.50;;;;;;4986370;28;20042;-75
2023/09/19 07:23:34;;;;;;;75.43;70.53;;;15.30;78.10;;;;;;4986897;28;20820;-74
2023/09/19 07:26:01;;;;;;;40.80;38.20;;;15.30;78.90;;;;;;4986762;28;20367;-75
2023/09/19 07:28:28;;;;;;;44.83;41.73;;;15.20;79.20;;;;;;4971622;28;20321;-74
2023/09/19 07:30:54;;;;;;;49.00;45.73;;;15.30;80.10;;;;;;4971620;28;20351;-75
2023/09/19 07:33:20;;;;;;;229.93;212.07;;;15.30;79.90;;;;;;4985898;28;20634;-75
2023/09/19 07:35:48;;;;;;;71.57;66.97;;;15.40;80.30;;;;;;4986936;28;20312;-75
2023/09/19 07:38:14;;;;;;;93.17;87.53;;;15.60;79.90;;;;;;4989008;28;20046;-75
2023/09/19 07:40:40;;;;;;;38.40;35.93;;;15.70;80.10;;;;;;4987032;28;20367;-75
2023/09/19 07:43:06;;;;;;;33.00;30.63;;;15.70;79.70;;;;;;4983477;28;20128;-74
2023/09/19 07:45:32;;;;;;;29.73;27.63;;;15.80;79.40;;;;;;4982850;28;20078;-75
2023/09/19 07:48:00;;;;;;;133.13;124.97;;;15.90;80.50;;;;;;4988454;28;20329;-74
2023/09/19 07:50:26;;;;;;;130.43;122.53;;;16.00;79.40;;;;;;4988801;28;20286;-75
2023/09/19 07:52:53;;;;;;;33.80;31.43;;;16.00;79.40;;;;;;4985225;28;20373;-74
2023/09/19 07:55:23;;;;;;;37.20;34.70;;;16.10;80.50;;;;;;4984528;28;20293;-75
2023/09/19 07:57:48;;;;;;;40.00;37.63;;;16.20;79.90;;;;;;4987420;28;20305;-75
2023/09/19 08:00:15;;;;;;;38.83;36.50;;;16.20;79.00;;;;;;4993601;28;20656;-74
2023/09/19 08:02:42;;;;;;;34.40;32.33;;;16.30;79.80;;;;;;4988250;28;20463;-75
2023/09/19 08:05:09;;;;;;;17.60;15.93;;;16.40;79.70;;;;;;4967619;28;20285;-74
2023/09/19 08:07:40;;;;;;;26.57;24.70;;;16.40;78.90;;;;;;4977071;28;20289;-74
2023/09/19 08:10:15;;;;;;;24.40;22.33;;;16.50;81.20;;;;;;4991926;28;20356;-74
2023/09/19 08:12:46;;;;;;;27.17;24.98;;;16.60;81.90;;;;;;4989237;28;20312;-74
2023/09/19 08:15:13;;;;;;;27.20;25.00;;;16.80;82.40;;;;;;4972618;28;20038;-74
2023/09/19 08:17:39;;;;;;;27.00;25.37;;;16.90;80.40;;;;;;4991733;28;20361;-74
2023/09/19 08:20:05;;;;;;;31.90;29.93;;;17.00;81.10;;;;;;4992549;28;20349;-74
2023/09/19 08:22:32;;;;;;;23.17;21.43;;;17.00;80.70;;;;;;4992222;28;20286;-74
2023/09/19 08:24:58;;;;;;;33.77;31.53;;;17.00;81.00;;;;;;4992455;28;20290;-74
2023/09/19 08:27:26;;;;;;;22.77;21.20;;;17.00;79.40;;;;;;4972731;28;20305;-74
2023/09/19 08:29:53;;;;;;;29.70;27.47;;;16.90;78.80;;;;;;4992390;28;20288;-74
2023/09/19 08:32:23;;;;;;;25.10;23.27;;;16.90;79.50;;;;;;4983232;28;20286;-74
2023/09/19 08:34:49;;;;;;;23.93;22.30;;;16.90;79.60;;;;;;4990406;28;20388;-74
2023/09/19 08:37:17;;;;;;;169.73;155.53;;;16.90;80.20;;;;;;4984956;28;20336;-74
2023/09/19 08:39:43;;;;;;;262.10;239.73;;;16.90;75.60;;;;;;4987966;28;20090;-74
2023/09/19 08:42:11;;;;;;;22.30;20.47;;;16.90;73.80;;;;;;4983191;28;20773;-75
2023/09/19 08:44:40;;;;;;;27.37;24.57;;;16.90;73.90;;;;;;4988780;28;20419;-74
2023/09/19 08:47:16;;;;;;;179.43;167.13;;;17.00;75.10;;;;;;4983396;28;20305;-74
2023/09/19 08:50:01;;;;;;;201.10;164.17;;;17.10;73.00;;;;;;4994628;28;20308;-75
2023/09/19 08:52:33;;;;;;;;;;;17.10;73.30;;;;;;4973912;28;20289;-74
2023/09/19 08:55:04;;;;;;;378.57;281.17;;;17.00;72.20;;;;;;4980619;28;20488;-75
2023/09/19 08:57:35;;;;;;;96.70;89.00;;;17.00;71.60;;;;;;4987252;28;20305;-75
2023/09/19 09:00:09;;;;;;;36.27;33.70;;;16.90;72.30;;;;;;4976952;28;20405;-74
2023/09/19 09:02:41;;;;;;;38.30;35.70;;;17.00;73.90;;;;;;4989873;28;20277;-74
2023/09/19 09:05:11;;;;;;;187.80;173.77;;;17.10;73.50;;;;;;4993817;28;20280;-75
2023/09/19 09:07:41;;;;;;;52.10;48.30;;;17.20;72.20;;;;;;4984641;28;20286;-75
2023/09/19 09:10:07;;;;;;;533.93;357.73;;;17.30;70.90;;;;;;4993861;28;20301;-75
2023/09/19 09:12:36;;;;;;;322.20;206.40;;;17.30;68.60;;;;;;4991608;28;20317;-74
2023/09/19 09:15:03;;;;;;;58.00;54.10;;;17.20;68.60;;;;;;4974573;28;20791;-75
2023/09/19 09:17:30;;;;;;;135.07;106.50;;;17.10;70.50;;;;;;4970908;28;20891;-74
2023/09/19 09:19:56;;;;;;;47.33;43.97;;;17.10;71.40;;;;;;4988467;28;20293;-74
2023/09/19 09:22:23;;;;;;;22.87;20.70;;;17.20;72.40;;;;;;4984397;28;20633;-74
2023/09/19 09:25:01;;;;;;;108.73;101.40;;;17.40;75.60;;;;;;4972254;28;20340;-74
2023/09/19 09:27:27;;;;;;;44.43;41.10;;;17.50;72.90;;;;;;4976163;28;20284;-74
2023/09/19 09:29:56;;;;;;;93.23;87.30;;;17.70;74.30;;;;;;4984153;28;20281;-74
2023/09/19 09:32:33;;;;;;;30.30;28.00;;;17.80;72.20;;;;;;4988902;28;20042;-74
2023/09/19 09:35:00;;;;;;;28.13;26.13;;;17.80;72.00;;;;;;4982596;28;20340;-74
2023/09/19 09:37:29;;;;;;;90.17;84.03;;;17.80;73.20;;;;;;4986820;28;20306;-74
2023/09/19 09:42:40;;;;;;;52.38;48.75;;;17.90;71.70;;;;;;4983507;28;20364;-74
2023/09/19 09:45:28;;;;;;;30.60;28.50;;;18.00;72.70;;;;;;4972523;28;20184;-73
2023/09/19 09:47:57;;;;;;;80.83;74.97;;;18.00;73.30;;;;;;4990947;28;20309;-75
2023/09/19 09:50:29;;;;;;;29.50;27.03;;;17.90;71.90;;;;;;4987985;28;20300;-74
2023/09/19 09:53:31;;;;;;;29.77;26.57;;;17.90;72.50;;;;;;4981555;28;20298;-74
2023/09/19 09:56:05;;;;;;;89.10;84.47;;;18.00;74.40;;;;;;4990615;28;20293;-74
2023/09/19 09:58:35;;;;;;;38.17;35.83;;;18.00;76.10;;;;;;4990059;28;20313;-74
2023/09/19 10:01:10;;;;;;;80.80;75.47;;;18.00;78.60;;;;;;4989311;28;20384;-73
2023/09/19 10:03:43;;;;;;;111.80;105.13;;;18.00;78.00;;;;;;4986329;28;20313;-74
2023/09/19 10:11:43;;;;;;;47.70;44.53;;;17.80;78.80;;;;;;4986637;28;20908;-74
2023/09/19 10:14:12;;;;;;;61.23;57.17;;;17.90;79.00;;;;;;5003220;28;20148;-74
2023/09/19 10:16:46;;;;;;;34.80;32.00;;;18.10;79.20;;;;;;4983420;28;20077;-74
2023/09/19 10:19:30;;;;;;;89.68;83.65;;;18.30;79.20;;;;;;4990310;28;21270;-74
2023/09/19 10:21:58;;;;;;;290.10;268.30;;;18.50;79.40;;;;;;4988443;28;20121;-74
2023/09/19 10:24:26;;;;;;;45.50;42.80;;;18.60;78.30;;;;;;4984362;28;20406;-74
2023/09/19 10:26:54;;;;;;;96.20;90.83;;;18.70;78.80;;;;;;4990612;28;20070;-74
2023/09/19 10:29:21;;;;;;;52.23;48.83;;;18.80;79.00;;;;;;4989823;28;20038;-75
2023/09/19 10:31:48;;;;;;;80.60;75.43;;;18.80;78.30;;;;;;4972690;28;20122;-75
2023/09/19 10:34:17;;;;;;;65.10;61.10;;;18.80;77.60;;;;;;4987196;28;20043;-75
2023/09/19 10:36:46;;;;;;;81.27;76.87;;;18.70;77.40;;;;;;4971521;28;20071;-74
2023/09/19 10:39:19;;;;;;;72.53;67.40;;;18.50;77.20;;;;;;4973054;28;20576;-74
2023/09/19 10:41:58;;;;;;;38.37;35.57;;;18.30;77.00;;;;;;4991861;28;20037;-75
2023/09/19 10:44:25;;;;;;;137.53;129.80;;;18.10;78.60;;;;;;4986557;28;20048;-75
2023/09/19 10:46:53;;;;;;;36.80;34.60;;;18.00;78.80;;;;;;4987379;28;20050;-75
2023/09/19 10:49:21;;;;;;;47.10;43.63;;;17.90;79.80;;;;;;4991217;28;20108;-74
2023/09/19 10:51:49;;;;;;;21.63;20.27;;;17.90;79.30;;;;;;4971684;28;20077;-75
2023/09/19 10:54:19;;;;;;;27.20;25.07;;;17.80;79.00;;;;;;4974226;28;20522;-74
2023/09/19 10:56:52;;;;;;;35.23;32.77;;;17.80;80.10;;;;;;4990310;28;20097;-74
2023/09/19 10:59:20;;;;;;;33.30;30.80;;;17.80;80.50;;;;;;4989755;28;20096;-75
2023/09/19 11:01:56;;;;;;;82.10;76.70;;;17.90;81.00;;;;;;4990223;28;20137;-75
2023/09/19 11:04:29;;;;;;;26.57;24.50;;;18.00;80.60;;;;;;4989781;28;20042;-74
2023/09/19 11:07:14;;;;;;;134.93;121.67;;;18.10;80.30;;;;;;4987135;28;20050;-75
2023/09/19 11:09:47;;;;;;;29.30;26.98;;;18.10;79.30;;;;;;4982881;28;20042;-74
2023/09/19 11:12:40;;;;;;;170.43;158.70;;;18.10;79.00;;;;;;4974063;28;20049;-74
2023/09/19 11:15:12;;;;;;;99.77;93.37;;;18.00;79.10;;;;;;4976660;28;20789;-75
2023/09/19 11:17:42;;;;;;;81.97;77.17;;;18.00;79.10;;;;;;4976969;28;20133;-74
2023/09/19 11:22:53;;;;;;;73.17;68.90;;;18.00;79.60;;;;;;4988130;28;20100;-74
2023/09/19 11:25:31;;;;;;;93.33;87.87;;;18.10;80.10;;;;;;4978110;28;20126;-75
2023/09/19 11:28:06;;;;;;;83.93;79.00;;;18.40;80.10;;;;;;4967706;28;20081;-74
2023/09/19 11:30:36;;;;;;;;;;;18.60;78.00;;;;;;4968810;28;20133;-75
2023/09/19 11:33:23;;;;;;;79.37;74.33;;;18.60;77.70;;;;;;4980785;28;19921;-74
2023/09/19 11:36:02;;;;;;;72.17;67.70;;;18.40;77.90;;;;;;4979125;28;20051;-74
2023/09/19 11:38:52;;;;;;;66.73;62.63;;;18.20;78.60;;;;;;4966968;28;20462;-75
2023/09/19 11:41:21;;;;;;;198.27;184.90;;;18.10;80.10;;;;;;4989664;28;20030;-75
2023/09/19 11:44:00;;;;;;;107.90;101.43;;;17.90;79.50;;;;;;4986029;28;20038;-75
2023/09/19 11:46:52;;;;;;;93.80;87.40;;;17.80;79.70;;;;;;4976774;28;20038;-74
2023/09/19 11:49:23;;;;;;;80.13;75.87;;;17.60;81.90;;;;;;4983404;28;20054;-74
2023/09/19 11:51:54;;;;;;;122.13;113.03;;;17.40;84.30;;;;;;4976717;28;20055;-75
2023/09/19 11:54:24;;;;;;;35.10;33.13;;;17.20;86.00;;;;;;4979913;28;20816;-75
2023/09/19 11:56:51;;;;;;;137.93;128.10;;;17.00;86.40;;;;;;4971045;28;20038;-74
2023/09/19 11:59:24;;;;;;;165.77;151.27;;;16.80;88.90;;;;;;4989653;28;20274;-75
2023/09/19 12:01:57;;;;;;;91.80;86.53;;;16.60;90.40;;;;;;4988275;28;20689;-75
2023/09/19 12:04:45;;;;;;;77.73;73.20;;;16.40;91.70;;;;;;4971345;28;20281;-74
2023/09/19 12:07:15;;;;;;;39.77;37.33;;;16.40;92.50;;;;;;4987229;28;20870;-75
2023/09/19 12:09:43;;;;;;;42.73;40.10;;;16.40;93.30;;;;;;4982564;28;20286;-74
2023/09/19 12:12:15;;;;;;;27.50;25.87;;;16.50;93.70;;;;;;4989378;28;20335;-74
2023/09/19 12:14:43;;;;;;;30.63;28.53;;;16.70;93.70;;;;;;4982942;28;20293;-74
2023/09/19 12:17:09;;;;;;;79.70;75.37;;;17.00;93.80;;;;;;4984180;28;20305;-74
2023/09/19 12:19:34;;;;;;;41.90;39.27;;;17.20;92.70;;;;;;4982695;28;20712;-74
2023/09/19 12:22:04;;;;;;;105.53;98.93;;;17.40;91.00;;;;;;4974189;28;20057;-74
2023/09/19 12:24:30;;;;;;;25.13;23.33;;;17.50;89.30;;;;;;4991849;28;20474;-75
2023/09/19 12:27:06;;;;;;;32.10;30.27;;;17.60;88.80;;;;;;4980120;28;20656;-74
2023/09/19 12:29:48;;;;;;;32.23;30.07;;;17.60;87.70;;;;;;4986731;28;20289;-74
2023/09/19 12:32:16;;;;;;;74.83;70.03;;;17.70;87.10;;;;;;4978789;28;20286;-74
2023/09/19 12:34:51;;;;;;;93.33;88.00;;;17.60;86.10;;;;;;4989630;28;20343;-74
2023/09/19 12:37:27;;;;;;;66.00;62.47;;;17.60;85.50;;;;;;4990139;28;20790;-74
2023/09/19 12:39:54;;;;;;;63.17;59.43;;;17.50;85.60;;;;;;4982834;28;20062;-75
2023/09/19 12:42:32;;;;;;;44.67;41.90;;;17.40;86.10;;;;;;4985737;28;20046;-74
2023/09/19 12:45:00;;;;;;;358.70;331.67;;;17.40;85.80;;;;;;4989252;28;20278;-75
2023/09/19 12:47:28;;;;;;;108.37;102.20;;;17.30;87.20;;;;;;4990108;28;20343;-75
2023/09/19 12:50:13;;;;;;;98.30;92.57;;;17.30;87.60;;;;;;4968233;28;20281;-75
2023/09/19 12:52:41;;;;;;;69.35;65.72;;;17.20;87.70;;;;;;4989917;28;20293;-75
2023/09/19 12:55:08;;;;;;;33.83;31.73;;;17.20;88.60;;;;;;4986165;28;20125;-75